KTCL/TCL METAR and TAF weather

Enter ICAO airport designator
Station Type Date Time Source
KTCL METAR 2021/06/24 05:53 UTC NOAA

KTCL 240553Z AUTO 04004KT 10SM CLR 22/21 A3009 RMK AO2 SLP187 T02220206 10300 20222 403110178 56002


Station Type Date Time Source
KTCL Decoded METAR 2021/06/24 05:53 UTC NOAA

TUSCALOOSA REGIONAL AIRPORT, AL, United States (KTCL) 33-13N 087-37W
Jun 24, 2021 - 01:53 AM EDT / 2021.06.24 0553 UTC
Wind: from the NE (040 degrees) at 5 MPH (4 KT):0
Visibility: 10 mile(s):0
Sky conditions: clear
Temperature: 72.0 F (22.2 C)
Dew Point: 69.1 F (20.6 C)
Relative Humidity: 90%
Pressure (altimeter): 30.09 in. Hg (1018 hPa)
Pressure tendency: 0.01 inches (0.2 hPa) lower than three hours ago
ob: KTCL 240553Z AUTO 04004KT 10SM CLR 22/21 A3009 RMK AO2 SLP187 T02220206 10300 20222 403110178 56002
cycle: 6

Station Type Date Time Source
KTCL TAF 2021/06/24 06:48 UTC NOAA

TAF KTCL 240540Z 2406/2506 VRB03KT P6SM FEW050
FM241600 15006KT P6SM FEW050 SCT200
FM242200 12006KT P6SM SCT200

Example: see airport list